sensor_id;sensor_type;location;lat;lon;timestamp;P1;durP1;ratioP1;P2;durP2;ratioP2
26654;SDS011;14278;50.784;4.630;2023-06-01T00:00:17;4.40;;;3.30;;
26654;SDS011;14278;50.784;4.630;2023-06-01T00:02:44;6.00;;;4.23;;
26654;SDS011;14278;50.784;4.630;2023-06-01T00:05:10;7.87;;;3.47;;
26654;SDS011;14278;50.784;4.630;2023-06-01T00:07:36;4.87;;;3.40;;
26654;SDS011;14278;50.784;4.630;2023-06-01T00:10:02;4.53;;;3.33;;
26654;SDS011;14278;50.784;4.630;2023-06-01T00:12:28;5.90;;;3.30;;
26654;SDS011;14278;50.784;4.630;2023-06-01T00:14:54;3.83;;;3.07;;
26654;SDS011;14278;50.784;4.630;2023-06-01T00:17:20;7.87;;;3.57;;
26654;SDS011;14278;50.784;4.630;2023-06-01T00:19:47;4.03;;;2.80;;
26654;SDS011;14278;50.784;4.630;2023-06-01T00:22:14;2.97;;;2.70;;
26654;SDS011;14278;50.784;4.630;2023-06-01T00:24:40;4.63;;;3.43;;
26654;SDS011;14278;50.784;4.630;2023-06-01T00:27:07;5.47;;;3.37;;
26654;SDS011;14278;50.784;4.630;2023-06-01T00:29:33;4.90;;;2.93;;
26654;SDS011;14278;50.784;4.630;2023-06-01T00:31:58;3.93;;;3.10;;
26654;SDS011;14278;50.784;4.630;2023-06-01T00:34:24;3.10;;;2.80;;
26654;SDS011;14278;50.784;4.630;2023-06-01T00:36:50;4.63;;;2.90;;
26654;SDS011;14278;50.784;4.630;2023-06-01T00:39:16;4.13;;;3.10;;
26654;SDS011;14278;50.784;4.630;2023-06-01T00:41:42;3.53;;;2.83;;
26654;SDS011;14278;50.784;4.630;2023-06-01T00:44:08;4.10;;;2.97;;
26654;SDS011;14278;50.784;4.630;2023-06-01T00:46:34;5.73;;;2.90;;
26654;SDS011;14278;50.784;4.630;2023-06-01T00:49:02;5.87;;;3.23;;
26654;SDS011;14278;50.784;4.630;2023-06-01T00:51:28;2.80;;;2.50;;
26654;SDS011;14278;50.784;4.630;2023-06-01T00:53:54;4.77;;;3.70;;
26654;SDS011;14278;50.784;4.630;2023-06-01T00:56:20;4.07;;;3.07;;
26654;SDS011;14278;50.784;4.630;2023-06-01T00:58:49;4.50;;;2.97;;
26654;SDS011;14278;50.784;4.630;2023-06-01T01:01:15;5.00;;;2.97;;
26654;SDS011;14278;50.784;4.630;2023-06-01T01:03:47;7.13;;;3.60;;
26654;SDS011;14278;50.784;4.630;2023-06-01T01:06:17;4.60;;;2.80;;
26654;SDS011;14278;50.784;4.630;2023-06-01T01:09:10;2.47;;;2.27;;
26654;SDS011;14278;50.784;4.630;2023-06-01T01:11:51;3.00;;;2.70;;
26654;SDS011;14278;50.784;4.630;2023-06-01T01:14:25;4.37;;;3.70;;
26654;SDS011;14278;50.784;4.630;2023-06-01T01:17:08;3.03;;;2.73;;
26654;SDS011;14278;50.784;4.630;2023-06-01T01:19:53;6.77;;;3.10;;
26654;SDS011;14278;50.784;4.630;2023-06-01T01:30:26;3.47;;;2.87;;
26654;SDS011;14278;50.784;4.630;2023-06-01T01:32:53;3.40;;;2.57;;
26654;SDS011;14278;50.784;4.630;2023-06-01T01:35:21;4.00;;;3.00;;
26654;SDS011;14278;50.784;4.630;2023-06-01T01:37:52;4.27;;;2.70;;
26654;SDS011;14278;50.784;4.630;2023-06-01T01:40:19;4.00;;;2.90;;
26654;SDS011;14278;50.784;4.630;2023-06-01T01:42:45;4.30;;;3.00;;
26654;SDS011;14278;50.784;4.630;2023-06-01T01:45:12;7.10;;;3.23;;
26654;SDS011;14278;50.784;4.630;2023-06-01T01:50:11;4.03;;;3.13;;
26654;SDS011;14278;50.784;4.630;2023-06-01T01:52:39;3.43;;;3.10;;
26654;SDS011;14278;50.784;4.630;2023-06-01T01:55:08;3.67;;;3.00;;
26654;SDS011;14278;50.784;4.630;2023-06-01T01:57:36;3.10;;;2.60;;
26654;SDS011;14278;50.784;4.630;2023-06-01T02:00:03;5.03;;;3.30;;
26654;SDS011;14278;50.784;4.630;2023-06-01T02:02:31;3.27;;;2.97;;
26654;SDS011;14278;50.784;4.630;2023-06-01T02:04:57;4.13;;;3.00;;
26654;SDS011;14278;50.784;4.630;2023-06-01T02:07:23;3.87;;;3.50;;
26654;SDS011;14278;50.784;4.630;2023-06-01T02:09:49;6.27;;;3.43;;
26654;SDS011;14278;50.784;4.630;2023-06-01T02:12:15;7.17;;;3.73;;
26654;SDS011;14278;50.784;4.630;2023-06-01T02:14:41;6.03;;;3.17;;
26654;SDS011;14278;50.784;4.630;2023-06-01T02:17:07;3.10;;;2.80;;
26654;SDS011;14278;50.784;4.630;2023-06-01T02:19:33;4.07;;;3.53;;
26654;SDS011;14278;50.784;4.630;2023-06-01T02:21:59;3.20;;;2.90;;
26654;SDS011;14278;50.784;4.630;2023-06-01T02:24:25;6.77;;;3.77;;
26654;SDS011;14278;50.784;4.630;2023-06-01T02:26:51;4.27;;;3.00;;
26654;SDS011;14278;50.784;4.630;2023-06-01T02:29:19;3.33;;;3.03;;
26654;SDS011;14278;50.784;4.630;2023-06-01T02:31:49;3.57;;;3.03;;
26654;SDS011;14278;50.784;4.630;2023-06-01T02:34:19;6.60;;;3.33;;
26654;SDS011;14278;50.784;4.630;2023-06-01T02:36:45;5.77;;;3.93;;
26654;SDS011;14278;50.784;4.630;2023-06-01T02:39:13;3.30;;;3.00;;
26654;SDS011;14278;50.784;4.630;2023-06-01T02:41:39;8.03;;;3.40;;
26654;SDS011;14278;50.784;4.630;2023-06-01T02:44:06;4.23;;;3.43;;
26654;SDS011;14278;50.784;4.630;2023-06-01T02:46:31;5.30;;;3.50;;
26654;SDS011;14278;50.784;4.630;2023-06-01T02:48:57;4.83;;;3.30;;
26654;SDS011;14278;50.784;4.630;2023-06-01T02:51:23;4.80;;;3.73;;
26654;SDS011;14278;50.784;4.630;2023-06-01T02:53:49;3.97;;;3.50;;
26654;SDS011;14278;50.784;4.630;2023-06-01T02:56:15;4.70;;;3.57;;
26654;SDS011;14278;50.784;4.630;2023-06-01T02:58:41;5.73;;;3.73;;
26654;SDS011;14278;50.784;4.630;2023-06-01T03:01:07;5.57;;;3.40;;
26654;SDS011;14278;50.784;4.630;2023-06-01T03:03:37;4.93;;;3.67;;
26654;SDS011;14278;50.784;4.630;2023-06-01T03:06:04;7.63;;;4.23;;
26654;SDS011;14278;50.784;4.630;2023-06-01T03:08:31;6.93;;;4.10;;
26654;SDS011;14278;50.784;4.630;2023-06-01T03:10:57;8.07;;;3.87;;
26654;SDS011;14278;50.784;4.630;2023-06-01T03:13:23;5.17;;;3.80;;
26654;SDS011;14278;50.784;4.630;2023-06-01T03:15:49;7.77;;;4.20;;
26654;SDS011;14278;50.784;4.630;2023-06-01T03:18:15;7.17;;;3.67;;
26654;SDS011;14278;50.784;4.630;2023-06-01T03:20:42;5.60;;;3.73;;
26654;SDS011;14278;50.784;4.630;2023-06-01T03:23:08;5.30;;;3.70;;
26654;SDS011;14278;50.784;4.630;2023-06-01T03:25:34;5.03;;;3.87;;
26654;SDS011;14278;50.784;4.630;2023-06-01T03:28:00;5.03;;;3.53;;
26654;SDS011;14278;50.784;4.630;2023-06-01T03:30:26;5.17;;;4.13;;
26654;SDS011;14278;50.784;4.630;2023-06-01T03:32:52;4.33;;;3.37;;
26654;SDS011;14278;50.784;4.630;2023-06-01T03:35:18;6.47;;;4.80;;
26654;SDS011;14278;50.784;4.630;2023-06-01T03:37:44;7.43;;;4.67;;
26654;SDS011;14278;50.784;4.630;2023-06-01T03:40:11;5.37;;;4.30;;
26654;SDS011;14278;50.784;4.630;2023-06-01T03:42:37;6.47;;;4.37;;
26654;SDS011;14278;50.784;4.630;2023-06-01T03:45:04;4.87;;;3.80;;
26654;SDS011;14278;50.784;4.630;2023-06-01T03:47:30;6.17;;;4.03;;
26654;SDS011;14278;50.784;4.630;2023-06-01T03:49:57;6.87;;;4.43;;
26654;SDS011;14278;50.784;4.630;2023-06-01T03:52:24;5.20;;;4.43;;
26654;SDS011;14278;50.784;4.630;2023-06-01T03:54:50;4.53;;;4.00;;
26654;SDS011;14278;50.784;4.630;2023-06-01T03:57:17;5.93;;;4.47;;
26654;SDS011;14278;50.784;4.630;2023-06-01T03:59:43;6.97;;;4.93;;
26654;SDS011;14278;50.784;4.630;2023-06-01T04:02:08;8.00;;;4.67;;
26654;SDS011;14278;50.784;4.630;2023-06-01T04:04:36;8.27;;;5.00;;
26654;SDS011;14278;50.784;4.630;2023-06-01T04:07:02;8.67;;;4.60;;
26654;SDS011;14278;50.784;4.630;2023-06-01T04:09:31;7.37;;;4.73;;
26654;SDS011;14278;50.784;4.630;2023-06-01T04:11:57;5.47;;;4.47;;
26654;SDS011;14278;50.784;4.630;2023-06-01T04:14:23;7.27;;;5.00;;
26654;SDS011;14278;50.784;4.630;2023-06-01T04:16:49;5.37;;;4.03;;
26654;SDS011;14278;50.784;4.630;2023-06-01T04:19:15;9.30;;;4.70;;
26654;SDS011;14278;50.784;4.630;2023-06-01T04:21:41;6.53;;;4.80;;
26654;SDS011;14278;50.784;4.630;2023-06-01T04:24:08;4.93;;;4.23;;
26654;SDS011;14278;50.784;4.630;2023-06-01T04:26:34;7.53;;;4.43;;
26654;SDS011;14278;50.784;4.630;2023-06-01T04:29:01;9.90;;;6.30;;
26654;SDS011;14278;50.784;4.630;2023-06-01T04:31:28;8.73;;;4.77;;
26654;SDS011;14278;50.784;4.630;2023-06-01T04:33:54;6.87;;;4.77;;
26654;SDS011;14278;50.784;4.630;2023-06-01T04:36:21;6.70;;;4.43;;
26654;SDS011;14278;50.784;4.630;2023-06-01T04:38:50;15.47;;;4.90;;
26654;SDS011;14278;50.784;4.630;2023-06-01T04:41:19;5.67;;;4.40;;
26654;SDS011;14278;50.784;4.630;2023-06-01T04:43:48;9.07;;;5.40;;
26654;SDS011;14278;50.784;4.630;2023-06-01T04:46:20;6.37;;;4.80;;
26654;SDS011;14278;50.784;4.630;2023-06-01T04:48:49;6.40;;;4.30;;
26654;SDS011;14278;50.784;4.630;2023-06-01T04:51:16;6.93;;;4.90;;
26654;SDS011;14278;50.784;4.630;2023-06-01T04:53:47;7.50;;;4.97;;
26654;SDS011;14278;50.784;4.630;2023-06-01T04:56:17;4.60;;;4.03;;
26654;SDS011;14278;50.784;4.630;2023-06-01T04:58:54;7.23;;;5.00;;
26654;SDS011;14278;50.784;4.630;2023-06-01T05:01:21;8.23;;;5.27;;
26654;SDS011;14278;50.784;4.630;2023-06-01T05:03:50;5.83;;;4.70;;
26654;SDS011;14278;50.784;4.630;2023-06-01T05:06:18;5.17;;;4.30;;
26654;SDS011;14278;50.784;4.630;2023-06-01T05:08:45;6.97;;;4.97;;
26654;SDS011;14278;50.784;4.630;2023-06-01T05:11:11;7.40;;;4.57;;
26654;SDS011;14278;50.784;4.630;2023-06-01T05:13:37;6.23;;;4.30;;
26654;SDS011;14278;50.784;4.630;2023-06-01T05:16:04;5.77;;;4.30;;
26654;SDS011;14278;50.784;4.630;2023-06-01T05:18:31;8.80;;;5.13;;
26654;SDS011;14278;50.784;4.630;2023-06-01T05:20:58;5.43;;;4.93;;
26654;SDS011;14278;50.784;4.630;2023-06-01T05:23:25;11.03;;;5.40;;
26654;SDS011;14278;50.784;4.630;2023-06-01T05:25:52;8.73;;;5.83;;
26654;SDS011;14278;50.784;4.630;2023-06-01T05:28:24;8.93;;;5.53;;
26654;SDS011;14278;50.784;4.630;2023-06-01T05:30:51;7.27;;;4.50;;
26654;SDS011;14278;50.784;4.630;2023-06-01T05:33:16;9.53;;;6.67;;
26654;SDS011;14278;50.784;4.630;2023-06-01T05:35:42;9.27;;;6.00;;
26654;SDS011;14278;50.784;4.630;2023-06-01T05:38:08;10.10;;;6.33;;
26654;SDS011;14278;50.784;4.630;2023-06-01T05:40:34;13.00;;;7.27;;
26654;SDS011;14278;50.784;4.630;2023-06-01T05:43:01;8.33;;;6.30;;
26654;SDS011;14278;50.784;4.630;2023-06-01T05:45:27;8.13;;;5.93;;
26654;SDS011;14278;50.784;4.630;2023-06-01T05:47:53;7.97;;;5.47;;
26654;SDS011;14278;50.784;4.630;2023-06-01T05:50:19;8.83;;;7.07;;
26654;SDS011;14278;50.784;4.630;2023-06-01T05:52:45;12.60;;;8.33;;
26654;SDS011;14278;50.784;4.630;2023-06-01T05:55:11;9.13;;;7.23;;
26654;SDS011;14278;50.784;4.630;2023-06-01T05:57:37;9.60;;;6.63;;
26654;SDS011;14278;50.784;4.630;2023-06-01T06:00:04;16.07;;;7.13;;
26654;SDS011;14278;50.784;4.630;2023-06-01T06:02:34;12.03;;;7.37;;
26654;SDS011;14278;50.784;4.630;2023-06-01T06:05:00;9.43;;;6.93;;
26654;SDS011;14278;50.784;4.630;2023-06-01T06:07:27;11.50;;;7.63;;
26654;SDS011;14278;50.784;4.630;2023-06-01T06:09:53;19.13;;;8.27;;
26654;SDS011;14278;50.784;4.630;2023-06-01T06:12:19;12.20;;;8.00;;
26654;SDS011;14278;50.784;4.630;2023-06-01T06:14:45;15.83;;;7.90;;
26654;SDS011;14278;50.784;4.630;2023-06-01T06:17:11;10.83;;;7.43;;
26654;SDS011;14278;50.784;4.630;2023-06-01T06:19:37;12.83;;;8.43;;
26654;SDS011;14278;50.784;4.630;2023-06-01T06:22:03;17.90;;;9.70;;
26654;SDS011;14278;50.784;4.630;2023-06-01T06:24:29;12.43;;;8.47;;
26654;SDS011;14278;50.784;4.630;2023-06-01T06:26:55;12.33;;;8.87;;
26654;SDS011;14278;50.784;4.630;2023-06-01T06:29:21;10.03;;;8.27;;
26654;SDS011;14278;50.784;4.630;2023-06-01T06:31:47;12.27;;;8.93;;
26654;SDS011;14278;50.784;4.630;2023-06-01T06:34:14;13.00;;;8.43;;
26654;SDS011;14278;50.784;4.630;2023-06-01T06:36:40;14.87;;;8.23;;
26654;SDS011;14278;50.784;4.630;2023-06-01T06:39:06;12.70;;;9.00;;
26654;SDS011;14278;50.784;4.630;2023-06-01T06:41:32;13.57;;;8.80;;
26654;SDS011;14278;50.784;4.630;2023-06-01T06:43:58;12.87;;;9.50;;
26654;SDS011;14278;50.784;4.630;2023-06-01T06:46:24;8.40;;;7.50;;
26654;SDS011;14278;50.784;4.630;2023-06-01T06:48:50;12.73;;;8.83;;
26654;SDS011;14278;50.784;4.630;2023-06-01T06:51:16;12.03;;;8.50;;
26654;SDS011;14278;50.784;4.630;2023-06-01T06:53:42;13.80;;;9.20;;
26654;SDS011;14278;50.784;4.630;2023-06-01T06:56:08;11.93;;;8.63;;
26654;SDS011;14278;50.784;4.630;2023-06-01T06:58:34;9.63;;;8.60;;
26654;SDS011;14278;50.784;4.630;2023-06-01T07:01:01;18.57;;;9.70;;
26654;SDS011;14278;50.784;4.630;2023-06-01T07:03:30;11.90;;;8.37;;
26654;SDS011;14278;50.784;4.630;2023-06-01T07:05:56;11.47;;;7.97;;
26654;SDS011;14278;50.784;4.630;2023-06-01T07:08:23;13.77;;;9.13;;
26654;SDS011;14278;50.784;4.630;2023-06-01T07:10:48;12.03;;;8.83;;
26654;SDS011;14278;50.784;4.630;2023-06-01T07:13:15;12.10;;;8.40;;
26654;SDS011;14278;50.784;4.630;2023-06-01T07:15:40;14.30;;;10.03;;
26654;SDS011;14278;50.784;4.630;2023-06-01T07:18:07;12.27;;;8.47;;
26654;SDS011;14278;50.784;4.630;2023-06-01T07:20:33;11.80;;;8.30;;
26654;SDS011;14278;50.784;4.630;2023-06-01T07:22:59;12.77;;;8.67;;
26654;SDS011;14278;50.784;4.630;2023-06-01T07:25:25;9.47;;;8.23;;
26654;SDS011;14278;50.784;4.630;2023-06-01T07:27:51;15.93;;;8.67;;
26654;SDS011;14278;50.784;4.630;2023-06-01T07:30:17;11.80;;;8.43;;
26654;SDS011;14278;50.784;4.630;2023-06-01T07:32:43;8.80;;;7.67;;
26654;SDS011;14278;50.784;4.630;2023-06-01T07:35:09;12.20;;;8.60;;
26654;SDS011;14278;50.784;4.630;2023-06-01T07:37:35;9.60;;;7.73;;
26654;SDS011;14278;50.784;4.630;2023-06-01T07:40:01;11.77;;;8.43;;
26654;SDS011;14278;50.784;4.630;2023-06-01T07:42:30;9.67;;;8.23;;
26654;SDS011;14278;50.784;4.630;2023-06-01T07:44:56;17.03;;;8.97;;
26654;SDS011;14278;50.784;4.630;2023-06-01T07:47:22;9.13;;;7.43;;
26654;SDS011;14278;50.784;4.630;2023-06-01T07:49:50;11.77;;;7.23;;
26654;SDS011;14278;50.784;4.630;2023-06-01T07:52:16;10.27;;;7.97;;
26654;SDS011;14278;50.784;4.630;2023-06-01T07:54:42;11.30;;;7.63;;
26654;SDS011;14278;50.784;4.630;2023-06-01T07:57:08;9.60;;;7.77;;
26654;SDS011;14278;50.784;4.630;2023-06-01T07:59:34;8.50;;;6.53;;
26654;SDS011;14278;50.784;4.630;2023-06-01T08:02:00;9.90;;;6.30;;
26654;SDS011;14278;50.784;4.630;2023-06-01T08:04:26;10.30;;;5.90;;
26654;SDS011;14278;50.784;4.630;2023-06-01T08:06:58;10.05;;;6.68;;
26654;SDS011;14278;50.784;4.630;2023-06-01T08:09:24;7.00;;;5.80;;
26654;SDS011;14278;50.784;4.630;2023-06-01T08:11:50;11.93;;;6.05;;
26654;SDS011;14278;50.784;4.630;2023-06-01T08:14:18;9.48;;;6.47;;
26654;SDS011;14278;50.784;4.630;2023-06-01T08:16:44;14.27;;;6.10;;
26654;SDS011;14278;50.784;4.630;2023-06-01T08:19:10;6.88;;;5.22;;
26654;SDS011;14278;50.784;4.630;2023-06-01T08:21:37;8.10;;;6.03;;
26654;SDS011;14278;50.784;4.630;2023-06-01T08:24:02;7.63;;;5.72;;
26654;SDS011;14278;50.784;4.630;2023-06-01T08:26:29;6.88;;;5.38;;
26654;SDS011;14278;50.784;4.630;2023-06-01T08:28:55;11.00;;;6.15;;
26654;SDS011;14278;50.784;4.630;2023-06-01T08:31:21;10.30;;;5.53;;
26654;SDS011;14278;50.784;4.630;2023-06-01T08:33:50;8.52;;;5.18;;
26654;SDS011;14278;50.784;4.630;2023-06-01T08:36:17;8.65;;;5.00;;
26654;SDS011;14278;50.784;4.630;2023-06-01T08:38:44;8.68;;;5.50;;
26654;SDS011;14278;50.784;4.630;2023-06-01T08:43:42;8.18;;;5.38;;
26654;SDS011;14278;50.784;4.630;2023-06-01T08:46:14;7.88;;;4.88;;
26654;SDS011;14278;50.784;4.630;2023-06-01T08:48:42;6.85;;;4.22;;
26654;SDS011;14278;50.784;4.630;2023-06-01T08:51:09;7.10;;;4.80;;
26654;SDS011;14278;50.784;4.630;2023-06-01T08:53:36;6.38;;;4.93;;
26654;SDS011;14278;50.784;4.630;2023-06-01T08:56:07;7.68;;;4.90;;
26654;SDS011;14278;50.784;4.630;2023-06-01T08:58:33;7.43;;;5.15;;
26654;SDS011;14278;50.784;4.630;2023-06-01T09:01:01;12.63;;;5.13;;
26654;SDS011;14278;50.784;4.630;2023-06-01T09:03:27;8.20;;;4.35;;
26654;SDS011;14278;50.784;4.630;2023-06-01T09:05:53;6.43;;;5.00;;
26654;SDS011;14278;50.784;4.630;2023-06-01T09:08:19;8.80;;;4.78;;
26654;SDS011;14278;50.784;4.630;2023-06-01T09:10:47;9.02;;;5.35;;
26654;SDS011;14278;50.784;4.630;2023-06-01T09:13:13;5.55;;;4.43;;
26654;SDS011;14278;50.784;4.630;2023-06-01T09:15:56;6.25;;;4.40;;
26654;SDS011;14278;50.784;4.630;2023-06-01T09:18:22;5.63;;;4.25;;
26654;SDS011;14278;50.784;4.630;2023-06-01T09:20:48;5.38;;;4.18;;
26654;SDS011;14278;50.784;4.630;2023-06-01T09:23:24;5.97;;;4.55;;
26654;SDS011;14278;50.784;4.630;2023-06-01T09:26:03;5.28;;;4.45;;
26654;SDS011;14278;50.784;4.630;2023-06-01T09:28:53;5.03;;;4.20;;
26654;SDS011;14278;50.784;4.630;2023-06-01T09:34:05;4.10;;;3.70;;
26654;SDS011;14278;50.784;4.630;2023-06-01T09:36:32;5.75;;;3.90;;
26654;SDS011;14278;50.784;4.630;2023-06-01T09:39:03;4.18;;;3.78;;
26654;SDS011;14278;50.784;4.630;2023-06-01T09:41:45;4.45;;;4.05;;
26654;SDS011;14278;50.784;4.630;2023-06-01T09:44:24;10.25;;;4.85;;
26654;SDS011;14278;50.784;4.630;2023-06-01T09:47:00;9.05;;;4.00;;
26654;SDS011;14278;50.784;4.630;2023-06-01T09:49:34;5.25;;;3.72;;
26654;SDS011;14278;50.784;4.630;2023-06-01T09:52:08;5.75;;;4.03;;
26654;SDS011;14278;50.784;4.630;2023-06-01T09:54:38;9.40;;;4.53;;
26654;SDS011;14278;50.784;4.630;2023-06-01T09:57:09;6.60;;;3.13;;
26654;SDS011;14278;50.784;4.630;2023-06-01T09:59:40;6.10;;;3.45;;
26654;SDS011;14278;50.784;4.630;2023-06-01T10:02:11;5.30;;;3.97;;
26654;SDS011;14278;50.784;4.630;2023-06-01T10:04:45;6.00;;;3.22;;
26654;SDS011;14278;50.784;4.630;2023-06-01T10:07:14;5.30;;;4.07;;
26654;SDS011;14278;50.784;4.630;2023-06-01T10:09:42;12.82;;;3.78;;
26654;SDS011;14278;50.784;4.630;2023-06-01T10:12:13;5.50;;;3.45;;
26654;SDS011;14278;50.784;4.630;2023-06-01T10:14:40;4.07;;;3.67;;
26654;SDS011;14278;50.784;4.630;2023-06-01T10:17:06;6.85;;;3.65;;
26654;SDS011;14278;50.784;4.630;2023-06-01T10:19:32;6.20;;;3.42;;
26654;SDS011;14278;50.784;4.630;2023-06-01T10:22:01;3.28;;;2.92;;
26654;SDS011;14278;50.784;4.630;2023-06-01T10:24:28;3.88;;;3.10;;
26654;SDS011;14278;50.784;4.630;2023-06-01T10:29:30;2.97;;;2.70;;
26654;SDS011;14278;50.784;4.630;2023-06-01T10:31:57;3.53;;;2.45;;
26654;SDS011;14278;50.784;4.630;2023-06-01T10:34:39;4.28;;;3.22;;
26654;SDS011;14278;50.784;4.630;2023-06-01T10:39:34;4.03;;;2.63;;
26654;SDS011;14278;50.784;4.630;2023-06-01T10:57:36;9.10;;;3.20;;
26654;SDS011;14278;50.784;4.630;2023-06-01T11:13:19;2.65;;;2.45;;
26654;SDS011;14278;50.784;4.630;2023-06-01T11:21:15;4.88;;;3.58;;
26654;SDS011;14278;50.784;4.630;2023-06-01T11:23:42;5.63;;;3.30;;
26654;SDS011;14278;50.784;4.630;2023-06-01T11:26:10;4.88;;;3.30;;
26654;SDS011;14278;50.784;4.630;2023-06-01T11:28:42;3.53;;;3.20;;
26654;SDS011;14278;50.784;4.630;2023-06-01T11:31:10;5.10;;;3.30;;
26654;SDS011;14278;50.784;4.630;2023-06-01T11:33:40;5.43;;;3.28;;
26654;SDS011;14278;50.784;4.630;2023-06-01T11:36:07;3.25;;;2.90;;
26654;SDS011;14278;50.784;4.630;2023-06-01T11:38:37;3.15;;;2.75;;
26654;SDS011;14278;50.784;4.630;2023-06-01T11:41:07;3.28;;;2.83;;
26654;SDS011;14278;50.784;4.630;2023-06-01T11:43:34;3.67;;;2.85;;
26654;SDS011;14278;50.784;4.630;2023-06-01T11:48:30;5.97;;;4.03;;
26654;SDS011;14278;50.784;4.630;2023-06-01T11:50:57;5.47;;;3.30;;
26654;SDS011;14278;50.784;4.630;2023-06-01T11:53:25;4.95;;;3.72;;
26654;SDS011;14278;50.784;4.630;2023-06-01T11:55:55;4.13;;;3.35;;
26654;SDS011;14278;50.784;4.630;2023-06-01T11:58:22;4.43;;;3.53;;
26654;SDS011;14278;50.784;4.630;2023-06-01T12:00:55;5.00;;;3.90;;
26654;SDS011;14278;50.784;4.630;2023-06-01T12:03:22;7.85;;;4.90;;
26654;SDS011;14278;50.784;4.630;2023-06-01T12:05:51;8.25;;;4.43;;
26654;SDS011;14278;50.784;4.630;2023-06-01T12:08:18;5.13;;;3.95;;
26654;SDS011;14278;50.784;4.630;2023-06-01T12:10:45;4.93;;;3.97;;
26654;SDS011;14278;50.784;4.630;2023-06-01T12:13:16;6.15;;;5.00;;
26654;SDS011;14278;50.784;4.630;2023-06-01T12:15:43;6.60;;;4.07;;
26654;SDS011;14278;50.784;4.630;2023-06-01T12:18:09;4.32;;;3.92;;
26654;SDS011;14278;50.784;4.630;2023-06-01T12:20:39;7.82;;;4.65;;
26654;SDS011;14278;50.784;4.630;2023-06-01T12:25:37;5.25;;;4.15;;
26654;SDS011;14278;50.784;4.630;2023-06-01T12:28:16;4.65;;;3.85;;
26654;SDS011;14278;50.784;4.630;2023-06-01T12:30:45;5.35;;;4.80;;
26654;SDS011;14278;50.784;4.630;2023-06-01T12:36:00;6.70;;;4.22;;
26654;SDS011;14278;50.784;4.630;2023-06-01T12:38:27;4.70;;;3.70;;
26654;SDS011;14278;50.784;4.630;2023-06-01T12:41:08;10.00;;;5.00;;
26654;SDS011;14278;50.784;4.630;2023-06-01T12:43:37;6.63;;;4.28;;
26654;SDS011;14278;50.784;4.630;2023-06-01T12:46:04;4.60;;;3.85;;
26654;SDS011;14278;50.784;4.630;2023-06-01T12:48:36;5.68;;;3.55;;
26654;SDS011;14278;50.784;4.630;2023-06-01T12:51:02;5.57;;;3.58;;
26654;SDS011;14278;50.784;4.630;2023-06-01T12:53:29;7.45;;;4.95;;
26654;SDS011;14278;50.784;4.630;2023-06-01T12:55:55;4.57;;;3.75;;
26654;SDS011;14278;50.784;4.630;2023-06-01T12:58:22;12.95;;;3.67;;
26654;SDS011;14278;50.784;4.630;2023-06-01T13:00:48;4.65;;;3.30;;
26654;SDS011;14278;50.784;4.630;2023-06-01T13:03:15;6.57;;;4.35;;
26654;SDS011;14278;50.784;4.630;2023-06-01T13:05:43;6.65;;;3.30;;
26654;SDS011;14278;50.784;4.630;2023-06-01T13:08:12;5.53;;;3.13;;
26654;SDS011;14278;50.784;4.630;2023-06-01T13:10:38;4.05;;;3.15;;
26654;SDS011;14278;50.784;4.630;2023-06-01T13:13:04;4.38;;;3.67;;
26654;SDS011;14278;50.784;4.630;2023-06-01T13:15:32;6.40;;;3.70;;
26654;SDS011;14278;50.784;4.630;2023-06-01T13:17:57;5.20;;;3.65;;
26654;SDS011;14278;50.784;4.630;2023-06-01T13:20:23;11.02;;;4.65;;
26654;SDS011;14278;50.784;4.630;2023-06-01T13:22:50;8.35;;;4.47;;
26654;SDS011;14278;50.784;4.630;2023-06-01T13:25:15;4.20;;;3.10;;
26654;SDS011;14278;50.784;4.630;2023-06-01T13:27:41;6.82;;;4.00;;
26654;SDS011;14278;50.784;4.630;2023-06-01T13:30:07;8.63;;;4.10;;
26654;SDS011;14278;50.784;4.630;2023-06-01T13:32:33;5.82;;;3.60;;
26654;SDS011;14278;50.784;4.630;2023-06-01T13:35:00;6.47;;;3.67;;
26654;SDS011;14278;50.784;4.630;2023-06-01T13:37:25;5.03;;;3.72;;
26654;SDS011;14278;50.784;4.630;2023-06-01T13:39:51;7.85;;;3.60;;
26654;SDS011;14278;50.784;4.630;2023-06-01T13:42:17;4.82;;;3.47;;
26654;SDS011;14278;50.784;4.630;2023-06-01T13:44:43;8.32;;;4.30;;
26654;SDS011;14278;50.784;4.630;2023-06-01T13:47:11;6.28;;;3.40;;
26654;SDS011;14278;50.784;4.630;2023-06-01T13:49:40;8.23;;;3.38;;
26654;SDS011;14278;50.784;4.630;2023-06-01T13:52:07;3.95;;;2.88;;
26654;SDS011;14278;50.784;4.630;2023-06-01T13:54:34;4.65;;;3.00;;
26654;SDS011;14278;50.784;4.630;2023-06-01T13:57:00;4.30;;;2.80;;
26654;SDS011;14278;50.784;4.630;2023-06-01T13:59:28;4.05;;;3.20;;
26654;SDS011;14278;50.784;4.630;2023-06-01T14:01:56;5.05;;;3.63;;
26654;SDS011;14278;50.784;4.630;2023-06-01T14:04:22;3.90;;;2.97;;
26654;SDS011;14278;50.784;4.630;2023-06-01T14:06:48;4.57;;;3.13;;
26654;SDS011;14278;50.784;4.630;2023-06-01T14:09:17;6.10;;;3.55;;
26654;SDS011;14278;50.784;4.630;2023-06-01T14:11:44;5.32;;;3.20;;
26654;SDS011;14278;50.784;4.630;2023-06-01T14:14:09;6.93;;;3.70;;
26654;SDS011;14278;50.784;4.630;2023-06-01T14:16:35;5.93;;;3.42;;
26654;SDS011;14278;50.784;4.630;2023-06-01T14:19:02;3.35;;;2.95;;
26654;SDS011;14278;50.784;4.630;2023-06-01T14:21:28;9.38;;;3.22;;
26654;SDS011;14278;50.784;4.630;2023-06-01T14:23:56;7.22;;;4.05;;
26654;SDS011;14278;50.784;4.630;2023-06-01T14:26:22;3.45;;;2.92;;
26654;SDS011;14278;50.784;4.630;2023-06-01T14:28:48;4.45;;;3.13;;
26654;SDS011;14278;50.784;4.630;2023-06-01T14:31:14;3.40;;;2.88;;
26654;SDS011;14278;50.784;4.630;2023-06-01T14:33:40;5.03;;;3.33;;
26654;SDS011;14278;50.784;4.630;2023-06-01T14:36:06;3.75;;;2.92;;
26654;SDS011;14278;50.784;4.630;2023-06-01T14:38:32;4.05;;;3.22;;
26654;SDS011;14278;50.784;4.630;2023-06-01T14:40:58;4.18;;;3.50;;
26654;SDS011;14278;50.784;4.630;2023-06-01T14:43:24;7.15;;;3.55;;
26654;SDS011;14278;50.784;4.630;2023-06-01T14:45:49;3.30;;;2.92;;
26654;SDS011;14278;50.784;4.630;2023-06-01T14:48:16;3.83;;;2.55;;
26654;SDS011;14278;50.784;4.630;2023-06-01T14:50:41;3.40;;;3.00;;
26654;SDS011;14278;50.784;4.630;2023-06-01T14:53:07;7.72;;;3.53;;
26654;SDS011;14278;50.784;4.630;2023-06-01T14:55:33;5.43;;;3.13;;
26654;SDS011;14278;50.784;4.630;2023-06-01T14:57:59;5.15;;;3.20;;
26654;SDS011;14278;50.784;4.630;2023-06-01T15:00:26;9.75;;;3.85;;
26654;SDS011;14278;50.784;4.630;2023-06-01T15:02:53;4.22;;;3.45;;
26654;SDS011;14278;50.784;4.630;2023-06-01T15:05:18;5.55;;;3.38;;
26654;SDS011;14278;50.784;4.630;2023-06-01T15:07:44;4.35;;;2.83;;
26654;SDS011;14278;50.784;4.630;2023-06-01T15:10:10;3.97;;;3.10;;
26654;SDS011;14278;50.784;4.630;2023-06-01T15:12:36;5.20;;;3.08;;
26654;SDS011;14278;50.784;4.630;2023-06-01T15:15:02;3.47;;;2.78;;
26654;SDS011;14278;50.784;4.630;2023-06-01T15:17:28;5.78;;;2.80;;
26654;SDS011;14278;50.784;4.630;2023-06-01T15:19:54;3.78;;;2.75;;
26654;SDS011;14278;50.784;4.630;2023-06-01T15:22:20;2.83;;;2.38;;
26654;SDS011;14278;50.784;4.630;2023-06-01T15:24:46;2.95;;;2.38;;
26654;SDS011;14278;50.784;4.630;2023-06-01T15:27:12;3.75;;;2.78;;
26654;SDS011;14278;50.784;4.630;2023-06-01T15:29:37;3.13;;;2.45;;
26654;SDS011;14278;50.784;4.630;2023-06-01T15:32:04;9.52;;;2.75;;
26654;SDS011;14278;50.784;4.630;2023-06-01T15:34:30;6.88;;;2.60;;
26654;SDS011;14278;50.784;4.630;2023-06-01T15:36:56;4.57;;;2.83;;
26654;SDS011;14278;50.784;4.630;2023-06-01T15:39:22;4.15;;;3.03;;
26654;SDS011;14278;50.784;4.630;2023-06-01T15:41:48;8.00;;;2.15;;
26654;SDS011;14278;50.784;4.630;2023-06-01T15:44:14;4.18;;;2.83;;
26654;SDS011;14278;50.784;4.630;2023-06-01T15:46:39;3.13;;;2.20;;
26654;SDS011;14278;50.784;4.630;2023-06-01T15:49:06;2.95;;;1.98;;